sensor_id;sensor_type;location;lat;lon;timestamp;pressure;altitude;pressure_sealevel;temperature;humidity
21300;BME280;10809;49.476;11.016;2024-01-07T00:00:21;97673.34;;;3.85;70.87
21300;BME280;10809;49.476;11.016;2024-01-07T00:02:51;97669.88;;;3.84;70.82
21300;BME280;10809;49.476;11.016;2024-01-07T00:05:22;97674.25;;;3.84;70.58
21300;BME280;10809;49.476;11.016;2024-01-07T00:07:52;97668.19;;;3.83;70.50
21300;BME280;10809;49.476;11.016;2024-01-07T00:10:22;97675.09;;;3.84;70.33
21300;BME280;10809;49.476;11.016;2024-01-07T00:12:53;97668.19;;;3.83;70.74
21300;BME280;10809;49.476;11.016;2024-01-07T00:15:23;97670.78;;;3.83;70.42
21300;BME280;10809;49.476;11.016;2024-01-07T00:17:56;97672.53;;;3.83;70.64
21300;BME280;10809;49.476;11.016;2024-01-07T00:20:27;97672.53;;;3.83;70.64
21300;BME280;10809;49.476;11.016;2024-01-07T00:22:57;97666.44;;;3.82;70.67
21300;BME280;10809;49.476;11.016;2024-01-07T00:25:27;97664.75;;;3.81;70.51
21300;BME280;10809;49.476;11.016;2024-01-07T00:27:58;97671.69;;;3.82;70.66
21300;BME280;10809;49.476;11.016;2024-01-07T00:30:28;97672.59;;;3.81;70.55
21300;BME280;10809;49.476;11.016;2024-01-07T00:32:59;97670.84;;;3.82;70.86
21300;BME280;10809;49.476;11.016;2024-01-07T00:35:29;97667.38;;;3.81;70.88
21300;BME280;10809;49.476;11.016;2024-01-07T00:38:00;97678.72;;;3.82;70.62
21300;BME280;10809;49.476;11.016;2024-01-07T00:40:30;97675.22;;;3.81;70.50
21300;BME280;10809;49.476;11.016;2024-01-07T00:43:00;97675.22;;;3.81;70.60
21300;BME280;10809;49.476;11.016;2024-01-07T00:45:31;97678.75;;;3.80;70.87
21300;BME280;10809;49.476;11.016;2024-01-07T00:48:01;97669.13;;;3.81;70.61
21300;BME280;10809;49.476;11.016;2024-01-07T00:50:32;97671.81;;;3.79;70.91
21300;BME280;10809;49.476;11.016;2024-01-07T00:53:02;97675.28;;;3.80;70.91
21300;BME280;10809;49.476;11.016;2024-01-07T00:55:32;97673.53;;;3.80;70.68
21300;BME280;10809;49.476;11.016;2024-01-07T00:58:03;97677.03;;;3.79;71.01
21300;BME280;10809;49.476;11.016;2024-01-07T01:00:33;97677.03;;;3.79;70.62
21300;BME280;10809;49.476;11.016;2024-01-07T01:03:03;97674.47;;;3.78;70.79
21300;BME280;10809;49.476;11.016;2024-01-07T01:05:34;97682.34;;;3.78;70.62
21300;BME280;10809;49.476;11.016;2024-01-07T01:08:04;97681.50;;;3.77;70.55
21300;BME280;10809;49.476;11.016;2024-01-07T01:10:35;97683.25;;;3.77;70.50
21300;BME280;10809;49.476;11.016;2024-01-07T01:13:05;97692.88;;;3.76;70.65
21300;BME280;10809;49.476;11.016;2024-01-07T01:15:35;97685.00;;;3.76;70.43
21300;BME280;10809;49.476;11.016;2024-01-07T01:18:06;97685.06;;;3.75;70.65
21300;BME280;10809;49.476;11.016;2024-01-07T01:20:36;97688.63;;;3.74;70.67
21300;BME280;10809;49.476;11.016;2024-01-07T01:23:06;97692.16;;;3.73;70.44
21300;BME280;10809;49.476;11.016;2024-01-07T01:25:40;97694.78;;;3.73;71.08
21300;BME280;10809;49.476;11.016;2024-01-07T01:28:10;97691.28;;;3.72;70.88
21300;BME280;10809;49.476;11.016;2024-01-07T01:30:40;97700.00;;;3.73;70.79
21300;BME280;10809;49.476;11.016;2024-01-07T01:33:11;97694.81;;;3.71;70.95
21300;BME280;10809;49.476;11.016;2024-01-07T01:35:41;97698.28;;;3.72;70.70
21300;BME280;10809;49.476;11.016;2024-01-07T01:38:11;97700.06;;;3.71;70.73
21300;BME280;10809;49.476;11.016;2024-01-07T01:40:42;97699.16;;;3.72;70.79
21300;BME280;10809;49.476;11.016;2024-01-07T01:43:12;97700.06;;;3.71;70.85
21300;BME280;10809;49.476;11.016;2024-01-07T01:45:43;97700.06;;;3.71;71.04
21300;BME280;10809;49.476;11.016;2024-01-07T01:48:16;97695.66;;;3.72;70.51
21300;BME280;10809;49.476;11.016;2024-01-07T01:50:47;97698.28;;;3.72;70.91
21300;BME280;10809;49.476;11.016;2024-01-07T01:53:18;97700.91;;;3.72;70.89
21300;BME280;10809;49.476;11.016;2024-01-07T01:55:48;97702.69;;;3.71;70.61
21300;BME280;10809;49.476;11.016;2024-01-07T01:58:19;97704.38;;;3.72;70.50
21300;BME280;10809;49.476;11.016;2024-01-07T02:00:50;97698.34;;;3.70;70.87
21300;BME280;10809;49.476;11.016;2024-01-07T02:03:21;97698.34;;;3.70;70.79
21300;BME280;10809;49.476;11.016;2024-01-07T02:05:56;97705.34;;;3.70;71.17
21300;BME280;10809;49.476;11.016;2024-01-07T02:08:28;97698.34;;;3.70;70.67
21300;BME280;10809;49.476;11.016;2024-01-07T02:11:14;97703.63;;;3.69;70.57
21300;BME280;10809;49.476;11.016;2024-01-07T02:13:44;97701.88;;;3.69;70.86
21300;BME280;10809;49.476;11.016;2024-01-07T02:16:15;97708.03;;;3.68;70.87
21300;BME280;10809;49.476;11.016;2024-01-07T02:18:46;97701.94;;;3.68;70.91
21300;BME280;10809;49.476;11.016;2024-01-07T02:21:16;97705.41;;;3.68;70.90
21300;BME280;10809;49.476;11.016;2024-01-07T02:23:47;97711.53;;;3.67;70.94
21300;BME280;10809;49.476;11.016;2024-01-07T02:26:17;97711.53;;;3.67;70.92
21300;BME280;10809;49.476;11.016;2024-01-07T02:28:47;97710.75;;;3.65;70.80
21300;BME280;10809;49.476;11.016;2024-01-07T02:31:17;97709.91;;;3.65;70.74
21300;BME280;10809;49.476;11.016;2024-01-07T02:33:48;97710.84;;;3.62;70.59
21300;BME280;10809;49.476;11.016;2024-01-07T02:36:19;97717.88;;;3.62;69.93
21300;BME280;10809;49.476;11.016;2024-01-07T02:38:49;97714.56;;;3.57;70.41
21300;BME280;10809;49.476;11.016;2024-01-07T02:41:19;97723.38;;;3.54;70.26
21300;BME280;10809;49.476;11.016;2024-01-07T02:43:51;97707.81;;;3.51;70.34
21300;BME280;10809;49.476;11.016;2024-01-07T02:46:27;97713.16;;;3.48;69.96
21300;BME280;10809;49.476;11.016;2024-01-07T02:49:01;97706.31;;;3.44;70.43
21300;BME280;10809;49.476;11.016;2024-01-07T02:51:34;97709.91;;;3.42;69.87
21300;BME280;10809;49.476;11.016;2024-01-07T02:54:04;97722.22;;;3.38;70.34
21300;BME280;10809;49.476;11.016;2024-01-07T02:56:38;97719.72;;;3.35;69.97
21300;BME280;10809;49.476;11.016;2024-01-07T02:59:08;97719.00;;;3.32;70.11
21300;BME280;10809;49.476;11.016;2024-01-07T03:01:38;97719.91;;;3.31;70.20
21300;BME280;10809;49.476;11.016;2024-01-07T03:04:15;97728.72;;;3.28;70.12
21300;BME280;10809;49.476;11.016;2024-01-07T03:06:46;97732.31;;;3.26;70.13
21300;BME280;10809;49.476;11.016;2024-01-07T03:09:16;97728.00;;;3.23;69.91
21300;BME280;10809;49.476;11.016;2024-01-07T03:11:50;97741.16;;;3.22;69.78
21300;BME280;10809;49.476;11.016;2024-01-07T03:14:20;97741.16;;;3.22;69.83
21300;BME280;10809;49.476;11.016;2024-01-07T03:16:51;97729.03;;;3.19;70.24
21300;BME280;10809;49.476;11.016;2024-01-07T03:19:21;97729.97;;;3.18;69.74
21300;BME280;10809;49.476;11.016;2024-01-07T03:21:53;97730.91;;;3.16;70.46
21300;BME280;10809;49.476;11.016;2024-01-07T03:24:23;97735.28;;;3.15;69.83
21300;BME280;10809;49.476;11.016;2024-01-07T03:26:54;97734.50;;;3.13;69.61
21300;BME280;10809;49.476;11.016;2024-01-07T03:29:24;97733.69;;;3.11;69.84
21300;BME280;10809;49.476;11.016;2024-01-07T03:31:57;97733.75;;;3.10;69.93
21300;BME280;10809;49.476;11.016;2024-01-07T03:34:27;97735.50;;;3.09;69.63
21300;BME280;10809;49.476;11.016;2024-01-07T03:37:04;97736.47;;;3.07;69.52
21300;BME280;10809;49.476;11.016;2024-01-07T03:39:34;97738.28;;;3.05;69.60
21300;BME280;10809;49.476;11.016;2024-01-07T03:42:05;97739.25;;;3.02;69.87
21300;BME280;10809;49.476;11.016;2024-01-07T03:44:41;97739.34;;;2.99;69.65
21300;BME280;10809;49.476;11.016;2024-01-07T03:47:11;97743.75;;;2.97;69.58
21300;BME280;10809;49.476;11.016;2024-01-07T03:49:41;97743.81;;;2.96;69.72
21300;BME280;10809;49.476;11.016;2024-01-07T03:52:15;97750.78;;;2.97;69.82
21300;BME280;10809;49.476;11.016;2024-01-07T03:54:45;97749.00;;;2.97;70.03
21300;BME280;10809;49.476;11.016;2024-01-07T03:57:16;97753.44;;;2.95;69.69
21300;BME280;10809;49.476;11.016;2024-01-07T03:59:46;97754.22;;;2.97;70.04
21300;BME280;10809;49.476;11.016;2024-01-07T04:02:16;97759.44;;;2.97;70.08
21300;BME280;10809;49.476;11.016;2024-01-07T04:04:49;97774.25;;;2.98;69.84
21300;BME280;10809;49.476;11.016;2024-01-07T04:07:23;97772.47;;;2.99;69.99
21300;BME280;10809;49.476;11.016;2024-01-07T04:09:53;97783.78;;;2.99;69.99
21300;BME280;10809;49.476;11.016;2024-01-07T04:12:23;97775.09;;;2.99;69.92
21300;BME280;10809;49.476;11.016;2024-01-07T04:14:54;97784.66;;;3.00;69.88
21300;BME280;10809;49.476;11.016;2024-01-07T04:17:24;97789.03;;;2.99;70.15
21300;BME280;10809;49.476;11.016;2024-01-07T04:19:55;97790.78;;;2.99;70.30
21300;BME280;10809;49.476;11.016;2024-01-07T04:22:25;97785.66;;;2.96;69.73
21300;BME280;10809;49.476;11.016;2024-01-07T04:24:56;97790.03;;;2.95;69.54
21300;BME280;10809;49.476;11.016;2024-01-07T04:27:26;97798.81;;;2.93;69.52
21300;BME280;10809;49.476;11.016;2024-01-07T04:29:56;97792.88;;;2.89;69.42
21300;BME280;10809;49.476;11.016;2024-01-07T04:32:27;97795.59;;;2.86;69.01
21300;BME280;10809;49.476;11.016;2024-01-07T04:34:57;97800.91;;;2.83;69.16
21300;BME280;10809;49.476;11.016;2024-01-07T04:37:28;97804.44;;;2.81;69.26
21300;BME280;10809;49.476;11.016;2024-01-07T04:39:58;97814.16;;;2.77;69.09
21300;BME280;10809;49.476;11.016;2024-01-07T04:42:31;97812.47;;;2.75;69.52
21300;BME280;10809;49.476;11.016;2024-01-07T04:45:02;97817.75;;;2.73;69.45
21300;BME280;10809;49.476;11.016;2024-01-07T04:47:33;97812.63;;;2.70;69.57
21300;BME280;10809;49.476;11.016;2024-01-07T04:50:07;97817.06;;;2.68;69.06
21300;BME280;10809;49.476;11.016;2024-01-07T04:52:37;97816.19;;;2.68;69.15
21300;BME280;10809;49.476;11.016;2024-01-07T04:55:08;97819.72;;;2.67;69.25
21300;BME280;10809;49.476;11.016;2024-01-07T04:57:39;97818.03;;;2.64;69.27
21300;BME280;10809;49.476;11.016;2024-01-07T05:00:13;97832.03;;;2.63;69.44
21300;BME280;10809;49.476;11.016;2024-01-07T05:02:43;97834.72;;;2.60;69.01
21300;BME280;10809;49.476;11.016;2024-01-07T05:05:16;97839.16;;;2.58;69.20
21300;BME280;10809;49.476;11.016;2024-01-07T05:07:47;97838.31;;;2.56;68.93
21300;BME280;10809;49.476;11.016;2024-01-07T05:10:20;97846.22;;;2.54;69.08
21300;BME280;10809;49.476;11.016;2024-01-07T05:12:50;97841.94;;;2.52;69.57
21300;BME280;10809;49.476;11.016;2024-01-07T05:15:21;97841.09;;;2.51;68.92
21300;BME280;10809;49.476;11.016;2024-01-07T05:18:00;97851.63;;;2.48;69.00
21300;BME280;10809;49.476;11.016;2024-01-07T05:20:31;97850.78;;;2.48;68.76
21300;BME280;10809;49.476;11.016;2024-01-07T05:23:01;97853.50;;;2.45;68.66
21300;BME280;10809;49.476;11.016;2024-01-07T05:25:32;97858.00;;;2.40;68.91
21300;BME280;10809;49.476;11.016;2024-01-07T05:28:02;97857.19;;;2.38;67.30
21300;BME280;10809;49.476;11.016;2024-01-07T05:30:33;97859.09;;;2.33;67.40
21300;BME280;10809;49.476;11.016;2024-01-07T05:33:03;97859.25;;;2.28;67.75
21300;BME280;10809;49.476;11.016;2024-01-07T05:35:33;97866.41;;;2.22;67.73
21300;BME280;10809;49.476;11.016;2024-01-07T05:38:04;97870.88;;;2.17;67.94
21300;BME280;10809;49.476;11.016;2024-01-07T05:40:35;97874.50;;;2.13;67.21
21300;BME280;10809;49.476;11.016;2024-01-07T05:43:05;97880.72;;;2.07;67.74
21300;BME280;10809;49.476;11.016;2024-01-07T05:45:35;97882.56;;;2.05;68.02
21300;BME280;10809;49.476;11.016;2024-01-07T05:48:06;97881.78;;;2.02;67.79
21300;BME280;10809;49.476;11.016;2024-01-07T05:50:37;97881.81;;;2.00;67.86
21300;BME280;10809;49.476;11.016;2024-01-07T05:53:07;97882.78;;;1.98;67.58
21300;BME280;10809;49.476;11.016;2024-01-07T05:55:37;97894.19;;;1.94;67.94
21300;BME280;10809;49.476;11.016;2024-01-07T05:58:07;97891.66;;;1.91;67.86
21300;BME280;10809;49.476;11.016;2024-01-07T06:00:38;97890.88;;;1.89;68.04
21300;BME280;10809;49.476;11.016;2024-01-07T06:03:10;97890.94;;;1.86;67.90
21300;BME280;10809;49.476;11.016;2024-01-07T06:05:40;97891.81;;;1.85;67.14
21300;BME280;10809;49.476;11.016;2024-01-07T06:08:11;97901.47;;;1.83;67.56
21300;BME280;10809;49.476;11.016;2024-01-07T06:10:44;97899.81;;;1.79;67.48
21300;BME280;10809;49.476;11.016;2024-01-07T06:13:17;97907.69;;;1.77;67.61
21300;BME280;10809;49.476;11.016;2024-01-07T06:15:48;97906.03;;;1.75;67.63
21300;BME280;10809;49.476;11.016;2024-01-07T06:18:18;97915.63;;;1.74;67.89
21300;BME280;10809;49.476;11.016;2024-01-07T06:20:49;97915.66;;;1.73;68.02
21300;BME280;10809;49.476;11.016;2024-01-07T06:23:22;97917.38;;;1.74;68.04
21300;BME280;10809;49.476;11.016;2024-01-07T06:25:52;97926.06;;;1.74;67.67
21300;BME280;10809;49.476;11.016;2024-01-07T06:28:22;97912.16;;;1.74;68.02
21300;BME280;10809;49.476;11.016;2024-01-07T06:31:08;97917.38;;;1.74;68.64
21300;BME280;10809;49.476;11.016;2024-01-07T06:33:42;97913.00;;;1.74;68.32
21300;BME280;10809;49.476;11.016;2024-01-07T06:36:19;97922.56;;;1.75;68.37
21300;BME280;10809;49.476;11.016;2024-01-07T06:38:55;97911.22;;;1.76;68.17
21300;BME280;10809;49.476;11.016;2024-01-07T06:41:25;97930.34;;;1.77;67.96
21300;BME280;10809;49.476;11.016;2024-01-07T06:43:56;97936.38;;;1.79;68.62
21300;BME280;10809;49.476;11.016;2024-01-07T06:46:27;97935.53;;;1.78;67.92
21300;BME280;10809;49.476;11.016;2024-01-07T06:48:57;97945.97;;;1.78;68.14
21300;BME280;10809;49.476;11.016;2024-01-07T06:51:27;97939.91;;;1.76;67.84
21300;BME280;10809;49.476;11.016;2024-01-07T06:53:58;97946.06;;;1.75;67.54
21300;BME280;10809;49.476;11.016;2024-01-07T06:56:28;97936.53;;;1.73;67.77
21300;BME280;10809;49.476;11.016;2024-01-07T06:58:58;97939.19;;;1.71;67.93
21300;BME280;10809;49.476;11.016;2024-01-07T07:01:29;97945.34;;;1.69;67.57
21300;BME280;10809;49.476;11.016;2024-01-07T07:03:59;97941.91;;;1.67;68.01
21300;BME280;10809;49.476;11.016;2024-01-07T07:06:30;97945.44;;;1.66;68.02
21300;BME280;10809;49.476;11.016;2024-01-07T07:09:01;97946.34;;;1.65;67.95
21300;BME280;10809;49.476;11.016;2024-01-07T07:11:32;97948.06;;;1.64;67.70
21300;BME280;10809;49.476;11.016;2024-01-07T07:14:02;97954.22;;;1.62;67.88
21300;BME280;10809;49.476;11.016;2024-01-07T07:16:32;97952.50;;;1.61;67.51
21300;BME280;10809;49.476;11.016;2024-01-07T07:19:02;97951.69;;;1.59;67.57
21300;BME280;10809;49.476;11.016;2024-01-07T07:21:33;97955.22;;;1.56;67.02
21300;BME280;10809;49.476;11.016;2024-01-07T07:24:03;97971.84;;;1.54;67.45
21300;BME280;10809;49.476;11.016;2024-01-07T07:26:34;97969.31;;;1.51;67.81
21300;BME280;10809;49.476;11.016;2024-01-07T07:29:07;97976.28;;;1.49;67.28
21300;BME280;10809;49.476;11.016;2024-01-07T07:31:39;97978.91;;;1.49;67.75
21300;BME280;10809;49.476;11.016;2024-01-07T07:34:10;97985.88;;;1.48;67.61
21300;BME280;10809;49.476;11.016;2024-01-07T07:36:41;97978.97;;;1.46;67.94
21300;BME280;10809;49.476;11.016;2024-01-07T07:39:13;97980.69;;;1.47;68.36
21300;BME280;10809;49.476;11.016;2024-01-07T07:41:45;97988.50;;;1.47;67.92
21300;BME280;10809;49.476;11.016;2024-01-07T07:44:15;97989.38;;;1.47;67.90
21300;BME280;10809;49.476;11.016;2024-01-07T07:46:46;97988.47;;;1.48;67.92
21300;BME280;10809;49.476;11.016;2024-01-07T07:49:16;97996.25;;;1.50;67.79
21300;BME280;10809;49.476;11.016;2024-01-07T07:51:46;98004.06;;;1.50;68.15
21300;BME280;10809;49.476;11.016;2024-01-07T07:54:16;98011.06;;;1.49;67.90
21300;BME280;10809;49.476;11.016;2024-01-07T07:56:48;98018.91;;;1.49;68.13
21300;BME280;10809;49.476;11.016;2024-01-07T07:59:18;98020.63;;;1.49;68.02
21300;BME280;10809;49.476;11.016;2024-01-07T08:01:49;98023.25;;;1.49;68.43
21300;BME280;10809;49.476;11.016;2024-01-07T08:04:20;98018.84;;;1.51;68.36
21300;BME280;10809;49.476;11.016;2024-01-07T08:06:50;98027.47;;;1.53;68.10
21300;BME280;10809;49.476;11.016;2024-01-07T08:09:20;98038.75;;;1.55;68.11
21300;BME280;10809;49.476;11.016;2024-01-07T08:11:51;98033.50;;;1.56;67.97
21300;BME280;10809;49.476;11.016;2024-01-07T08:14:23;98036.09;;;1.56;67.55
21300;BME280;10809;49.476;11.016;2024-01-07T08:16:53;98033.53;;;1.55;67.25
21300;BME280;10809;49.476;11.016;2024-01-07T08:19:24;98040.56;;;1.51;67.32
21300;BME280;10809;49.476;11.016;2024-01-07T08:21:54;98039.81;;;1.48;67.28
21300;BME280;10809;49.476;11.016;2024-01-07T08:24:35;98045.97;;;1.44;67.09
21300;BME280;10809;49.476;11.016;2024-01-07T08:27:05;98041.69;;;1.41;67.02
21300;BME280;10809;49.476;11.016;2024-01-07T08:29:36;98045.25;;;1.39;67.25
21300;BME280;10809;49.476;11.016;2024-01-07T08:32:06;98045.31;;;1.36;67.57
21300;BME280;10809;49.476;11.016;2024-01-07T08:34:38;98040.09;;;1.36;67.21
21300;BME280;10809;49.476;11.016;2024-01-07T08:37:09;98041.88;;;1.34;67.32
21300;BME280;10809;49.476;11.016;2024-01-07T08:39:39;98048.78;;;1.35;67.51
21300;BME280;10809;49.476;11.016;2024-01-07T08:42:16;98043.56;;;1.35;67.72
21300;BME280;10809;49.476;11.016;2024-01-07T08:44:46;98061.03;;;1.33;66.85
21300;BME280;10809;49.476;11.016;2024-01-07T08:47:17;98058.50;;;1.30;66.77
21300;BME280;10809;49.476;11.016;2024-01-07T08:49:47;98067.22;;;1.27;67.17
21300;BME280;10809;49.476;11.016;2024-01-07T08:52:18;98065.50;;;1.26;67.07
21300;BME280;10809;49.476;11.016;2024-01-07T08:54:48;98074.25;;;1.25;67.15
21300;BME280;10809;49.476;11.016;2024-01-07T08:57:18;98079.47;;;1.25;67.53
21300;BME280;10809;49.476;11.016;2024-01-07T08:59:49;98086.41;;;1.25;67.30
21300;BME280;10809;49.476;11.016;2024-01-07T09:02:19;98089.06;;;1.23;67.82
21300;BME280;10809;49.476;11.016;2024-01-07T09:04:49;98082.97;;;1.23;67.09
21300;BME280;10809;49.476;11.016;2024-01-07T09:07:20;98090.78;;;1.23;67.22
21300;BME280;10809;49.476;11.016;2024-01-07T09:09:50;98090.78;;;1.23;67.41
21300;BME280;10809;49.476;11.016;2024-01-07T09:12:21;98092.59;;;1.21;67.10
21300;BME280;10809;49.476;11.016;2024-01-07T09:14:54;98104.78;;;1.19;66.43
21300;BME280;10809;49.476;11.016;2024-01-07T09:17:25;98109.22;;;1.15;66.12
21300;BME280;10809;49.476;11.016;2024-01-07T09:19:55;98108.47;;;1.09;66.36
21300;BME280;10809;49.476;11.016;2024-01-07T09:22:25;98112.94;;;1.04;66.28
21300;BME280;10809;49.476;11.016;2024-01-07T09:24:55;98120.00;;;0.99;66.41
21300;BME280;10809;49.476;11.016;2024-01-07T09:27:26;98120.13;;;0.93;66.25
21300;BME280;10809;49.476;11.016;2024-01-07T09:29:56;98129.75;;;0.89;66.62
21300;BME280;10809;49.476;11.016;2024-01-07T09:32:26;98127.19;;;0.86;66.44
21300;BME280;10809;49.476;11.016;2024-01-07T09:34:57;98132.47;;;0.83;66.11
21300;BME280;10809;49.476;11.016;2024-01-07T09:37:28;98136.00;;;0.81;66.43
21300;BME280;10809;49.476;11.016;2024-01-07T09:40:05;98130.00;;;0.77;66.68
21300;BME280;10809;49.476;11.016;2024-01-07T09:42:36;98135.22;;;0.76;66.18
21300;BME280;10809;49.476;11.016;2024-01-07T09:45:07;98134.44;;;0.72;65.70
21300;BME280;10809;49.476;11.016;2024-01-07T09:47:37;98140.63;;;0.66;66.06
21300;BME280;10809;49.476;11.016;2024-01-07T09:50:08;98135.47;;;0.63;66.26
21300;BME280;10809;49.476;11.016;2024-01-07T09:52:46;98139.91;;;0.60;66.35
21300;BME280;10809;49.476;11.016;2024-01-07T09:55:26;98144.28;;;0.56;65.84
21300;BME280;10809;49.476;11.016;2024-01-07T09:58:00;98144.34;;;0.53;65.71
21300;BME280;10809;49.476;11.016;2024-01-07T10:00:31;98147.88;;;0.49;65.82
21300;BME280;10809;49.476;11.016;2024-01-07T10:03:02;98150.53;;;0.46;66.09
21300;BME280;10809;49.476;11.016;2024-01-07T10:05:33;98160.16;;;0.44;66.25
21300;BME280;10809;49.476;11.016;2024-01-07T10:08:03;98159.31;;;0.42;66.42
21300;BME280;10809;49.476;11.016;2024-01-07T10:10:35;98161.03;;;0.42;66.21
21300;BME280;10809;49.476;11.016;2024-01-07T10:13:05;98161.94;;;0.41;66.43
21300;BME280;10809;49.476;11.016;2024-01-07T10:15:36;98162.84;;;0.40;66.49
21300;BME280;10809;49.476;11.016;2024-01-07T10:18:07;98165.47;;;0.38;66.08
21300;BME280;10809;49.476;11.016;2024-01-07T10:20:40;98161.16;;;0.36;65.91
21300;BME280;10809;49.476;11.016;2024-01-07T10:23:11;98168.16;;;0.34;66.17
21300;BME280;10809;49.476;11.016;2024-01-07T10:25:41;98165.56;;;0.32;66.29
21300;BME280;10809;49.476;11.016;2024-01-07T10:28:12;98168.22;;;0.31;66.60
21300;BME280;10809;49.476;11.016;2024-01-07T10:30:50;98163.00;;;0.31;66.54
21300;BME280;10809;49.476;11.016;2024-01-07T10:33:21;98162.97;;;0.32;66.38
21300;BME280;10809;49.476;11.016;2024-01-07T10:36:01;98170.81;;;0.31;66.66
21300;BME280;10809;49.476;11.016;2024-01-07T10:38:34;98169.03;;;0.31;66.62
21300;BME280;10809;49.476;11.016;2024-01-07T10:41:09;98165.59;;;0.31;66.33
21300;BME280;10809;49.476;11.016;2024-01-07T10:43:42;98176.03;;;0.29;66.50
21300;BME280;10809;49.476;11.016;2024-01-07T10:46:13;98169.09;;;0.28;66.68
21300;BME280;10809;49.476;11.016;2024-01-07T10:48:55;98176.06;;;0.28;66.37
21300;BME280;10809;49.476;11.016;2024-01-07T10:51:30;98165.69;;;0.26;66.09
21300;BME280;10809;49.476;11.016;2024-01-07T10:54:03;98169.16;;;0.25;66.17
21300;BME280;10809;49.476;11.016;2024-01-07T10:56:45;98172.66;;;0.24;66.06
21300;BME280;10809;49.476;11.016;2024-01-07T10:59:19;98173.53;;;0.23;66.36
21300;BME280;10809;49.476;11.016;2024-01-07T11:01:53;98169.19;;;0.22;66.51
21300;BME280;10809;49.476;11.016;2024-01-07T11:04:30;98167.44;;;0.24;66.65
21300;BME280;10809;49.476;11.016;2024-01-07T11:07:12;98168.31;;;0.25;66.06
21300;BME280;10809;49.476;11.016;2024-01-07T11:10:10;98178.72;;;0.25;66.32
21300;BME280;10809;49.476;11.016;2024-01-07T11:12:41;98177.84;;;0.24;66.42
21300;BME280;10809;49.476;11.016;2024-01-07T11:15:11;98176.97;;;0.24;66.55
21300;BME280;10809;49.476;11.016;2024-01-07T11:18:02;98179.63;;;0.22;66.15
21300;BME280;10809;49.476;11.016;2024-01-07T11:20:32;98168.38;;;0.22;66.26
21300;BME280;10809;49.476;11.016;2024-01-07T11:23:26;98179.63;;;0.22;66.46
21300;BME280;10809;49.476;11.016;2024-01-07T11:25:57;98176.19;;;0.20;65.67
21300;BME280;10809;49.476;11.016;2024-01-07T11:28:50;98171.88;;;0.18;65.65
21300;BME280;10809;49.476;11.016;2024-01-07T11:31:22;98178.00;;;0.15;65.50
21300;BME280;10809;49.476;11.016;2024-01-07T11:34:40;98177.22;;;0.10;65.63
21300;BME280;10809;49.476;11.016;2024-01-07T11:37:13;98177.25;;;0.09;65.79
21300;BME280;10809;49.476;11.016;2024-01-07T11:39:47;98182.47;;;0.07;65.91
21300;BME280;10809;49.476;11.016;2024-01-07T11:42:18;98191.16;;;0.08;65.67
21300;BME280;10809;49.476;11.016;2024-01-07T11:44:51;98191.19;;;0.06;65.67
21300;BME280;10809;49.476;11.016;2024-01-07T11:47:23;98186.00;;;0.05;66.21
21300;BME280;10809;49.476;11.016;2024-01-07T11:49:59;98188.63;;;0.03;65.64
21300;BME280;10809;49.476;11.016;2024-01-07T11:52:32;98196.44;;;0.03;65.54
21300;BME280;10809;49.476;11.016;2024-01-07T11:55:06;98186.88;;;0.02;66.03
21300;BME280;10809;49.476;11.016;2024-01-07T11:57:37;98197.28;;;0.02;66.09
21300;BME280;10809;49.476;11.016;2024-01-07T12:00:08;98194.66;;;0.04;66.00
21300;BME280;10809;49.476;11.016;2024-01-07T12:02:42;98191.19;;;0.05;66.20
21300;BME280;10809;49.476;11.016;2024-01-07T12:05:12;98199.88;;;0.04;66.17
21300;BME280;10809;49.476;11.016;2024-01-07T12:07:45;98193.81;;;0.05;66.19
21300;BME280;10809;49.476;11.016;2024-01-07T12:10:16;98193.81;;;0.05;66.21
21300;BME280;10809;49.476;11.016;2024-01-07T12:12:48;98203.34;;;0.04;65.78
21300;BME280;10809;49.476;11.016;2024-01-07T12:15:20;98199.88;;;0.04;65.77
21300;BME280;10809;49.476;11.016;2024-01-07T12:17:58;98194.66;;;0.04;66.12
21300;BME280;10809;49.476;11.016;2024-01-07T12:20:28;98193.81;;;0.03;66.22
21300;BME280;10809;49.476;11.016;2024-01-07T12:23:06;98199.91;;;0.02;65.61
21300;BME280;10809;49.476;11.016;2024-01-07T12:25:37;98205.13;;;0.01;65.85
21300;BME280;10809;49.476;11.016;2024-01-07T12:28:07;98201.66;;;0.02;65.68
21300;BME280;10809;49.476;11.016;2024-01-07T12:30:37;98208.59;;;0.01;66.27
21300;BME280;10809;49.476;11.016;2024-01-07T12:33:08;98206.00;;;0.01;65.88
21300;BME280;10809;49.476;11.016;2024-01-07T12:35:39;98206.88;;;0.02;65.97
21300;BME280;10809;49.476;11.016;2024-01-07T12:38:12;98206.88;;;0.02;66.05
21300;BME280;10809;49.476;11.016;2024-01-07T12:40:45;98213.78;;;0.03;65.89
21300;BME280;10809;49.476;11.016;2024-01-07T12:43:19;98209.44;;;0.03;65.98
21300;BME280;10809;49.476;11.016;2024-01-07T12:45:50;98205.94;;;0.04;66.04
21300;BME280;10809;49.476;11.016;2024-01-07T12:48:20;98213.78;;;0.03;66.12
21300;BME280;10809;49.476;11.016;2024-01-07T12:50:51;98216.41;;;0.01;65.81
21300;BME280;10809;49.476;11.016;2024-01-07T12:53:21;98214.69;;;0.00;65.75
21300;BME280;10809;49.476;11.016;2024-01-07T12:55:52;98217.31;;;-0.01;65.54
21300;BME280;10809;49.476;11.016;2024-01-07T12:58:26;98219.94;;;-0.03;65.40
21300;BME280;10809;49.476;11.016;2024-01-07T13:00:56;98230.34;;;-0.03;65.75
21300;BME280;10809;49.476;11.016;2024-01-07T13:03:27;98234.66;;;-0.02;65.66
21300;BME280;10809;49.476;11.016;2024-01-07T13:05:57;98239.03;;;-0.04;65.99
21300;BME280;10809;49.476;11.016;2024-01-07T13:08:31;98236.41;;;-0.04;65.70
21300;BME280;10809;49.476;11.016;2024-01-07T13:11:03;98240.75;;;-0.03;65.94
21300;BME280;10809;49.476;11.016;2024-01-07T13:13:37;98243.38;;;-0.03;65.88
21300;BME280;10809;49.476;11.016;2024-01-07T13:16:07;98245.97;;;-0.03;65.87
21300;BME280;10809;49.476;11.016;2024-01-07T13:18:37;98247.66;;;-0.02;66.05
21300;BME280;10809;49.476;11.016;2024-01-07T13:21:08;98251.16;;;-0.03;66.11
21300;BME280;10809;49.476;11.016;2024-01-07T13:23:41;98246.81;;;-0.02;66.38